sensor_id;sensor_type;location;lat;lon;timestamp;P1;durP1;ratioP1;P2;durP2;ratioP2
7215;SDS011;3649;48.798;9.798;2022-08-25T00:01:34;7.00;;;4.87;;
7215;SDS011;3649;48.798;9.798;2022-08-25T00:04:05;5.50;;;5.00;;
7215;SDS011;3649;48.798;9.798;2022-08-25T00:06:36;7.70;;;5.20;;
7215;SDS011;3649;48.798;9.798;2022-08-25T00:09:05;26.93;;;13.50;;
7215;SDS011;3649;48.798;9.798;2022-08-25T00:11:36;12.80;;;7.83;;
7215;SDS011;3649;48.798;9.798;2022-08-25T00:14:05;5.73;;;4.70;;
7215;SDS011;3649;48.798;9.798;2022-08-25T00:16:35;5.67;;;4.70;;
7215;SDS011;3649;48.798;9.798;2022-08-25T00:19:04;5.43;;;4.67;;
7215;SDS011;3649;48.798;9.798;2022-08-25T00:21:33;7.90;;;4.50;;
7215;SDS011;3649;48.798;9.798;2022-08-25T00:24:00;7.30;;;4.67;;
7215;SDS011;3649;48.798;9.798;2022-08-25T00:26:28;4.43;;;4.03;;
7215;SDS011;3649;48.798;9.798;2022-08-25T00:28:55;13.10;;;5.03;;
7215;SDS011;3649;48.798;9.798;2022-08-25T00:31:27;6.53;;;4.67;;
7215;SDS011;3649;48.798;9.798;2022-08-25T00:34:05;5.23;;;4.73;;
7215;SDS011;3649;48.798;9.798;2022-08-25T00:36:37;5.40;;;4.90;;
7215;SDS011;3649;48.798;9.798;2022-08-25T00:39:05;5.07;;;4.67;;
7215;SDS011;3649;48.798;9.798;2022-08-25T00:41:33;5.60;;;4.57;;
7215;SDS011;3649;48.798;9.798;2022-08-25T00:44:02;8.77;;;5.03;;
7215;SDS011;3649;48.798;9.798;2022-08-25T00:46:42;5.50;;;5.00;;
7215;SDS011;3649;48.798;9.798;2022-08-25T00:49:21;4.77;;;4.37;;
7215;SDS011;3649;48.798;9.798;2022-08-25T00:54:29;5.03;;;4.53;;
7215;SDS011;3649;48.798;9.798;2022-08-25T00:57:00;5.13;;;4.23;;
7215;SDS011;3649;48.798;9.798;2022-08-25T00:59:29;5.67;;;4.10;;
7215;SDS011;3649;48.798;9.798;2022-08-25T01:01:56;4.93;;;4.40;;
7215;SDS011;3649;48.798;9.798;2022-08-25T01:04:24;4.93;;;4.20;;
7215;SDS011;3649;48.798;9.798;2022-08-25T01:06:52;4.50;;;4.10;;
7215;SDS011;3649;48.798;9.798;2022-08-25T01:09:20;4.40;;;4.00;;
7215;SDS011;3649;48.798;9.798;2022-08-25T01:11:47;5.10;;;4.20;;
7215;SDS011;3649;48.798;9.798;2022-08-25T01:14:15;4.50;;;4.10;;
7215;SDS011;3649;48.798;9.798;2022-08-25T01:16:44;6.03;;;4.47;;
7215;SDS011;3649;48.798;9.798;2022-08-25T01:19:16;4.27;;;3.90;;
7215;SDS011;3649;48.798;9.798;2022-08-25T01:21:49;4.33;;;3.93;;
7215;SDS011;3649;48.798;9.798;2022-08-25T01:26:51;6.10;;;4.33;;
7215;SDS011;3649;48.798;9.798;2022-08-25T01:29:18;4.90;;;4.37;;
7215;SDS011;3649;48.798;9.798;2022-08-25T01:31:49;4.67;;;4.30;;
7215;SDS011;3649;48.798;9.798;2022-08-25T01:34:25;3.60;;;3.40;;
7215;SDS011;3649;48.798;9.798;2022-08-25T01:36:55;7.43;;;4.50;;
7215;SDS011;3649;48.798;9.798;2022-08-25T01:39:25;4.30;;;4.00;;
7215;SDS011;3649;48.798;9.798;2022-08-25T01:44:35;4.70;;;4.30;;
7215;SDS011;3649;48.798;9.798;2022-08-25T01:47:04;4.33;;;3.90;;
7215;SDS011;3649;48.798;9.798;2022-08-25T01:49:32;4.30;;;3.90;;
7215;SDS011;3649;48.798;9.798;2022-08-25T01:52:10;4.23;;;3.93;;
7215;SDS011;3649;48.798;9.798;2022-08-25T01:54:45;5.07;;;3.87;;
7215;SDS011;3649;48.798;9.798;2022-08-25T01:57:12;4.10;;;3.70;;
7215;SDS011;3649;48.798;9.798;2022-08-25T01:59:39;7.67;;;4.23;;
7215;SDS011;3649;48.798;9.798;2022-08-25T02:02:06;4.97;;;4.10;;
7215;SDS011;3649;48.798;9.798;2022-08-25T02:04:35;4.63;;;4.30;;
7215;SDS011;3649;48.798;9.798;2022-08-25T02:07:03;5.43;;;4.20;;
7215;SDS011;3649;48.798;9.798;2022-08-25T02:09:32;5.83;;;4.40;;
7215;SDS011;3649;48.798;9.798;2022-08-25T02:12:00;6.73;;;4.07;;
7215;SDS011;3649;48.798;9.798;2022-08-25T02:14:27;7.13;;;4.00;;
7215;SDS011;3649;48.798;9.798;2022-08-25T02:16:54;7.90;;;4.10;;
7215;SDS011;3649;48.798;9.798;2022-08-25T02:19:21;4.67;;;4.00;;
7215;SDS011;3649;48.798;9.798;2022-08-25T02:21:49;4.07;;;3.77;;
7215;SDS011;3649;48.798;9.798;2022-08-25T02:24:16;4.10;;;3.80;;
7215;SDS011;3649;48.798;9.798;2022-08-25T02:26:43;4.87;;;4.37;;
7215;SDS011;3649;48.798;9.798;2022-08-25T02:29:11;5.63;;;4.30;;
7215;SDS011;3649;48.798;9.798;2022-08-25T02:31:38;4.57;;;4.20;;
7215;SDS011;3649;48.798;9.798;2022-08-25T02:34:06;4.40;;;3.80;;
7215;SDS011;3649;48.798;9.798;2022-08-25T02:36:34;5.97;;;4.17;;
7215;SDS011;3649;48.798;9.798;2022-08-25T02:39:03;4.07;;;3.77;;
7215;SDS011;3649;48.798;9.798;2022-08-25T02:41:32;5.03;;;4.63;;
7215;SDS011;3649;48.798;9.798;2022-08-25T02:44:00;4.93;;;4.47;;
7215;SDS011;3649;48.798;9.798;2022-08-25T02:46:29;4.40;;;4.00;;
7215;SDS011;3649;48.798;9.798;2022-08-25T02:48:56;4.90;;;4.30;;
7215;SDS011;3649;48.798;9.798;2022-08-25T02:51:24;4.97;;;4.43;;
7215;SDS011;3649;48.798;9.798;2022-08-25T02:53:51;4.57;;;4.23;;
7215;SDS011;3649;48.798;9.798;2022-08-25T02:56:18;4.80;;;4.30;;
7215;SDS011;3649;48.798;9.798;2022-08-25T02:58:46;5.50;;;3.93;;
7215;SDS011;3649;48.798;9.798;2022-08-25T03:01:13;5.00;;;4.60;;
7215;SDS011;3649;48.798;9.798;2022-08-25T03:03:42;5.27;;;4.40;;
7215;SDS011;3649;48.798;9.798;2022-08-25T03:06:11;4.40;;;4.10;;
7215;SDS011;3649;48.798;9.798;2022-08-25T03:08:40;4.37;;;3.97;;
7215;SDS011;3649;48.798;9.798;2022-08-25T03:11:08;5.80;;;5.30;;
7215;SDS011;3649;48.798;9.798;2022-08-25T03:13:36;5.30;;;4.73;;
7215;SDS011;3649;48.798;9.798;2022-08-25T03:16:04;5.87;;;5.27;;
7215;SDS011;3649;48.798;9.798;2022-08-25T03:18:36;5.80;;;5.20;;
7215;SDS011;3649;48.798;9.798;2022-08-25T03:21:06;5.00;;;4.60;;
7215;SDS011;3649;48.798;9.798;2022-08-25T03:23:33;5.17;;;4.77;;
7215;SDS011;3649;48.798;9.798;2022-08-25T03:26:01;9.47;;;5.63;;
7215;SDS011;3649;48.798;9.798;2022-08-25T03:28:46;6.23;;;5.63;;
7215;SDS011;3649;48.798;9.798;2022-08-25T03:31:13;5.37;;;4.97;;
7215;SDS011;3649;48.798;9.798;2022-08-25T03:33:40;6.07;;;5.57;;
7215;SDS011;3649;48.798;9.798;2022-08-25T03:36:08;6.47;;;5.30;;
7215;SDS011;3649;48.798;9.798;2022-08-25T03:38:37;6.97;;;5.77;;
7215;SDS011;3649;48.798;9.798;2022-08-25T03:41:16;6.30;;;5.80;;
7215;SDS011;3649;48.798;9.798;2022-08-25T03:43:45;6.20;;;5.60;;
7215;SDS011;3649;48.798;9.798;2022-08-25T03:46:18;6.93;;;6.07;;
7215;SDS011;3649;48.798;9.798;2022-08-25T03:48:47;5.63;;;5.10;;
7215;SDS011;3649;48.798;9.798;2022-08-25T03:53:52;5.77;;;5.27;;
7215;SDS011;3649;48.798;9.798;2022-08-25T03:56:19;6.73;;;6.13;;
7215;SDS011;3649;48.798;9.798;2022-08-25T03:58:46;7.13;;;6.43;;
7215;SDS011;3649;48.798;9.798;2022-08-25T04:01:14;8.37;;;6.70;;
7215;SDS011;3649;48.798;9.798;2022-08-25T04:03:43;7.37;;;6.63;;
7215;SDS011;3649;48.798;9.798;2022-08-25T04:06:10;9.53;;;6.67;;
7215;SDS011;3649;48.798;9.798;2022-08-25T04:08:38;11.87;;;7.40;;
7215;SDS011;3649;48.798;9.798;2022-08-25T04:11:09;7.30;;;6.70;;
7215;SDS011;3649;48.798;9.798;2022-08-25T04:13:44;8.07;;;6.90;;
7215;SDS011;3649;48.798;9.798;2022-08-25T04:16:13;8.13;;;7.30;;
7215;SDS011;3649;48.798;9.798;2022-08-25T04:18:44;7.73;;;6.90;;
7215;SDS011;3649;48.798;9.798;2022-08-25T04:21:13;7.70;;;6.50;;
7215;SDS011;3649;48.798;9.798;2022-08-25T04:23:41;8.17;;;6.63;;
7215;SDS011;3649;48.798;9.798;2022-08-25T04:28:56;7.13;;;6.53;;
7215;SDS011;3649;48.798;9.798;2022-08-25T04:31:25;8.17;;;6.63;;
7215;SDS011;3649;48.798;9.798;2022-08-25T04:33:53;6.87;;;5.37;;
7215;SDS011;3649;48.798;9.798;2022-08-25T04:36:20;6.77;;;6.13;;
7215;SDS011;3649;48.798;9.798;2022-08-25T04:38:48;6.03;;;5.53;;
7215;SDS011;3649;48.798;9.798;2022-08-25T04:41:17;5.87;;;5.33;;
7215;SDS011;3649;48.798;9.798;2022-08-25T04:43:47;9.37;;;5.93;;
7215;SDS011;3649;48.798;9.798;2022-08-25T04:46:15;6.60;;;6.00;;
7215;SDS011;3649;48.798;9.798;2022-08-25T04:48:47;7.50;;;5.60;;
7215;SDS011;3649;48.798;9.798;2022-08-25T04:51:17;7.27;;;6.00;;
7215;SDS011;3649;48.798;9.798;2022-08-25T04:53:46;9.23;;;6.30;;
7215;SDS011;3649;48.798;9.798;2022-08-25T04:56:15;6.57;;;5.97;;
7215;SDS011;3649;48.798;9.798;2022-08-25T04:58:43;6.83;;;6.13;;
7215;SDS011;3649;48.798;9.798;2022-08-25T05:01:13;6.63;;;6.03;;
7215;SDS011;3649;48.798;9.798;2022-08-25T05:03:43;7.27;;;6.50;;
7215;SDS011;3649;48.798;9.798;2022-08-25T05:06:12;6.80;;;6.10;;
7215;SDS011;3649;48.798;9.798;2022-08-25T05:08:41;7.00;;;6.30;;
7215;SDS011;3649;48.798;9.798;2022-08-25T05:11:12;7.27;;;6.33;;
7215;SDS011;3649;48.798;9.798;2022-08-25T05:13:41;9.23;;;7.10;;
7215;SDS011;3649;48.798;9.798;2022-08-25T05:16:17;7.03;;;6.43;;
7215;SDS011;3649;48.798;9.798;2022-08-25T05:18:46;7.37;;;6.77;;
7215;SDS011;3649;48.798;9.798;2022-08-25T05:21:14;6.93;;;5.63;;
7215;SDS011;3649;48.798;9.798;2022-08-25T05:23:43;7.20;;;6.50;;
7215;SDS011;3649;48.798;9.798;2022-08-25T05:26:13;7.80;;;6.47;;
7215;SDS011;3649;48.798;9.798;2022-08-25T05:28:48;8.77;;;6.43;;
7215;SDS011;3649;48.798;9.798;2022-08-25T05:31:16;10.43;;;6.00;;
7215;SDS011;3649;48.798;9.798;2022-08-25T05:33:45;7.20;;;6.50;;
7215;SDS011;3649;48.798;9.798;2022-08-25T05:36:12;11.37;;;7.27;;
7215;SDS011;3649;48.798;9.798;2022-08-25T05:38:42;6.77;;;6.17;;
7215;SDS011;3649;48.798;9.798;2022-08-25T05:41:11;6.90;;;6.30;;
7215;SDS011;3649;48.798;9.798;2022-08-25T05:43:44;8.03;;;7.23;;
7215;SDS011;3649;48.798;9.798;2022-08-25T05:46:14;8.03;;;6.67;;
7215;SDS011;3649;48.798;9.798;2022-08-25T05:48:42;7.23;;;6.63;;
7215;SDS011;3649;48.798;9.798;2022-08-25T05:51:10;7.73;;;6.43;;
7215;SDS011;3649;48.798;9.798;2022-08-25T05:53:39;7.40;;;6.70;;
7215;SDS011;3649;48.798;9.798;2022-08-25T05:56:08;7.17;;;6.50;;
7215;SDS011;3649;48.798;9.798;2022-08-25T05:58:36;8.40;;;7.43;;
7215;SDS011;3649;48.798;9.798;2022-08-25T06:01:03;11.03;;;8.00;;
7215;SDS011;3649;48.798;9.798;2022-08-25T06:03:49;11.93;;;8.13;;
7215;SDS011;3649;48.798;9.798;2022-08-25T06:06:20;11.57;;;8.77;;
7215;SDS011;3649;48.798;9.798;2022-08-25T06:08:48;9.83;;;8.63;;
7215;SDS011;3649;48.798;9.798;2022-08-25T06:11:15;12.50;;;7.43;;
7215;SDS011;3649;48.798;9.798;2022-08-25T06:13:42;9.67;;;7.63;;
7215;SDS011;3649;48.798;9.798;2022-08-25T06:16:10;13.37;;;8.30;;
7215;SDS011;3649;48.798;9.798;2022-08-25T06:18:37;8.50;;;7.53;;
7215;SDS011;3649;48.798;9.798;2022-08-25T06:21:11;8.53;;;7.57;;
7215;SDS011;3649;48.798;9.798;2022-08-25T06:23:40;8.60;;;7.23;;
7215;SDS011;3649;48.798;9.798;2022-08-25T06:26:10;9.83;;;7.67;;
7215;SDS011;3649;48.798;9.798;2022-08-25T06:28:47;9.73;;;7.90;;
7215;SDS011;3649;48.798;9.798;2022-08-25T06:31:15;8.50;;;7.30;;
7215;SDS011;3649;48.798;9.798;2022-08-25T06:33:42;9.90;;;8.93;;
7215;SDS011;3649;48.798;9.798;2022-08-25T06:36:10;9.60;;;8.30;;
7215;SDS011;3649;48.798;9.798;2022-08-25T06:38:37;9.23;;;7.60;;
7215;SDS011;3649;48.798;9.798;2022-08-25T06:41:07;8.50;;;7.60;;
7215;SDS011;3649;48.798;9.798;2022-08-25T06:43:40;10.83;;;8.17;;
7215;SDS011;3649;48.798;9.798;2022-08-25T06:46:16;9.03;;;8.07;;
7215;SDS011;3649;48.798;9.798;2022-08-25T06:48:45;9.80;;;8.10;;
7215;SDS011;3649;48.798;9.798;2022-08-25T06:51:14;11.33;;;7.97;;
7215;SDS011;3649;48.798;9.798;2022-08-25T06:53:43;11.40;;;8.60;;
7215;SDS011;3649;48.798;9.798;2022-08-25T06:56:12;9.37;;;8.03;;
7215;SDS011;3649;48.798;9.798;2022-08-25T06:58:39;11.20;;;8.33;;
7215;SDS011;3649;48.798;9.798;2022-08-25T07:03:44;10.47;;;8.00;;
7215;SDS011;3649;48.798;9.798;2022-08-25T07:06:12;10.70;;;7.87;;
7215;SDS011;3649;48.798;9.798;2022-08-25T07:08:43;9.43;;;7.77;;
7215;SDS011;3649;48.798;9.798;2022-08-25T07:11:11;7.27;;;6.67;;
7215;SDS011;3649;48.798;9.798;2022-08-25T07:13:42;8.03;;;7.23;;
7215;SDS011;3649;48.798;9.798;2022-08-25T07:16:10;7.77;;;6.97;;
7215;SDS011;3649;48.798;9.798;2022-08-25T07:18:37;7.67;;;6.97;;
7215;SDS011;3649;48.798;9.798;2022-08-25T07:21:05;8.50;;;7.13;;
7215;SDS011;3649;48.798;9.798;2022-08-25T07:23:34;7.37;;;6.73;;
7215;SDS011;3649;48.798;9.798;2022-08-25T07:29:05;10.33;;;8.00;;
7215;SDS011;3649;48.798;9.798;2022-08-25T07:31:35;21.83;;;12.33;;
7215;SDS011;3649;48.798;9.798;2022-08-25T07:34:02;11.87;;;8.77;;
7215;SDS011;3649;48.798;9.798;2022-08-25T07:36:50;8.43;;;6.63;;
7215;SDS011;3649;48.798;9.798;2022-08-25T07:39:18;10.87;;;6.93;;
7215;SDS011;3649;48.798;9.798;2022-08-25T07:41:47;8.43;;;6.30;;
7215;SDS011;3649;48.798;9.798;2022-08-25T07:44:18;6.17;;;5.57;;
7215;SDS011;3649;48.798;9.798;2022-08-25T07:46:47;7.00;;;6.20;;
7215;SDS011;3649;48.798;9.798;2022-08-25T07:49:16;7.13;;;5.73;;
7215;SDS011;3649;48.798;9.798;2022-08-25T07:51:49;5.87;;;5.40;;
7215;SDS011;3649;48.798;9.798;2022-08-25T07:54:31;6.47;;;5.87;;
7215;SDS011;3649;48.798;9.798;2022-08-25T07:57:01;9.40;;;5.57;;
7215;SDS011;3649;48.798;9.798;2022-08-25T07:59:30;5.80;;;5.30;;
7215;SDS011;3649;48.798;9.798;2022-08-25T08:02:06;6.50;;;5.90;;
7215;SDS011;3649;48.798;9.798;2022-08-25T08:04:44;7.23;;;5.53;;
7215;SDS011;3649;48.798;9.798;2022-08-25T08:07:18;6.93;;;5.43;;
7215;SDS011;3649;48.798;9.798;2022-08-25T08:09:48;6.17;;;5.20;;
7215;SDS011;3649;48.798;9.798;2022-08-25T08:12:30;7.03;;;5.10;;
7215;SDS011;3649;48.798;9.798;2022-08-25T08:14:59;6.30;;;5.10;;
7215;SDS011;3649;48.798;9.798;2022-08-25T08:17:26;6.43;;;5.33;;
7215;SDS011;3649;48.798;9.798;2022-08-25T08:19:53;8.87;;;5.53;;
7215;SDS011;3649;48.798;9.798;2022-08-25T08:22:21;5.67;;;5.13;;
7215;SDS011;3649;48.798;9.798;2022-08-25T08:24:48;5.60;;;5.03;;
7215;SDS011;3649;48.798;9.798;2022-08-25T08:27:21;5.57;;;5.07;;
7215;SDS011;3649;48.798;9.798;2022-08-25T08:29:49;5.63;;;5.00;;
7215;SDS011;3649;48.798;9.798;2022-08-25T08:32:17;5.70;;;5.20;;
7215;SDS011;3649;48.798;9.798;2022-08-25T08:34:49;5.77;;;4.83;;
7215;SDS011;3649;48.798;9.798;2022-08-25T08:37:16;5.23;;;4.83;;
7215;SDS011;3649;48.798;9.798;2022-08-25T08:39:48;5.57;;;5.07;;
7215;SDS011;3649;48.798;9.798;2022-08-25T08:42:32;5.27;;;4.10;;
7215;SDS011;3649;48.798;9.798;2022-08-25T08:45:24;6.20;;;5.10;;
7215;SDS011;3649;48.798;9.798;2022-08-25T08:47:57;6.40;;;4.17;;
7215;SDS011;3649;48.798;9.798;2022-08-25T08:53:18;4.73;;;4.33;;
7215;SDS011;3649;48.798;9.798;2022-08-25T08:56:00;5.07;;;4.57;;
7215;SDS011;3649;48.798;9.798;2022-08-25T08:58:38;6.17;;;5.00;;
7215;SDS011;3649;48.798;9.798;2022-08-25T09:01:23;5.73;;;4.90;;
7215;SDS011;3649;48.798;9.798;2022-08-25T09:04:18;4.93;;;4.53;;
7215;SDS011;3649;48.798;9.798;2022-08-25T09:06:53;4.87;;;4.40;;
7215;SDS011;3649;48.798;9.798;2022-08-25T09:09:29;5.30;;;4.37;;
7215;SDS011;3649;48.798;9.798;2022-08-25T09:17:46;4.90;;;4.40;;
7215;SDS011;3649;48.798;9.798;2022-08-25T09:23:12;4.97;;;4.47;;
7215;SDS011;3649;48.798;9.798;2022-08-25T09:28:38;5.47;;;4.97;;
7215;SDS011;3649;48.798;9.798;2022-08-25T09:31:15;4.40;;;3.93;;
7215;SDS011;3649;48.798;9.798;2022-08-25T09:33:55;5.83;;;4.13;;
7215;SDS011;3649;48.798;9.798;2022-08-25T09:36:27;6.90;;;4.53;;
7215;SDS011;3649;48.798;9.798;2022-08-25T09:39:02;6.87;;;5.27;;
7215;SDS011;3649;48.798;9.798;2022-08-25T09:41:42;5.80;;;5.10;;
7215;SDS011;3649;48.798;9.798;2022-08-25T09:46:57;7.33;;;5.00;;
7215;SDS011;3649;48.798;9.798;2022-08-25T09:50:02;4.50;;;4.20;;
7215;SDS011;3649;48.798;9.798;2022-08-25T10:05:31;7.23;;;5.73;;
7215;SDS011;3649;48.798;9.798;2022-08-25T10:08:10;9.00;;;5.17;;
7215;SDS011;3649;48.798;9.798;2022-08-25T10:10:45;5.83;;;4.90;;
7215;SDS011;3649;48.798;9.798;2022-08-25T10:13:20;5.73;;;5.13;;
7215;SDS011;3649;48.798;9.798;2022-08-25T10:16:12;6.30;;;5.00;;
7215;SDS011;3649;48.798;9.798;2022-08-25T10:19:07;5.27;;;4.80;;
7215;SDS011;3649;48.798;9.798;2022-08-25T10:21:39;6.83;;;5.50;;
7215;SDS011;3649;48.798;9.798;2022-08-25T10:24:08;6.27;;;4.60;;
7215;SDS011;3649;48.798;9.798;2022-08-25T10:32:15;5.50;;;5.00;;
7215;SDS011;3649;48.798;9.798;2022-08-25T10:34:48;5.97;;;5.37;;
7215;SDS011;3649;48.798;9.798;2022-08-25T10:45:44;6.83;;;4.67;;
7215;SDS011;3649;48.798;9.798;2022-08-25T10:48:24;5.03;;;4.50;;
7215;SDS011;3649;48.798;9.798;2022-08-25T10:53:34;5.27;;;4.77;;
7215;SDS011;3649;48.798;9.798;2022-08-25T10:56:40;6.20;;;5.00;;
7215;SDS011;3649;48.798;9.798;2022-08-25T10:59:25;5.27;;;4.77;;
7215;SDS011;3649;48.798;9.798;2022-08-25T11:08:02;6.03;;;5.43;;
7215;SDS011;3649;48.798;9.798;2022-08-25T11:10:38;7.30;;;5.60;;
7215;SDS011;3649;48.798;9.798;2022-08-25T11:13:21;5.03;;;4.63;;
7215;SDS011;3649;48.798;9.798;2022-08-25T11:16:11;6.23;;;4.30;;
7215;SDS011;3649;48.798;9.798;2022-08-25T11:18:53;4.37;;;3.97;;
7215;SDS011;3649;48.798;9.798;2022-08-25T11:21:34;5.20;;;4.80;;
7215;SDS011;3649;48.798;9.798;2022-08-25T11:24:40;4.23;;;3.93;;
7215;SDS011;3649;48.798;9.798;2022-08-25T11:27:10;7.67;;;4.27;;
7215;SDS011;3649;48.798;9.798;2022-08-25T11:30:03;4.43;;;3.97;;
7215;SDS011;3649;48.798;9.798;2022-08-25T11:32:35;4.13;;;3.23;;
7215;SDS011;3649;48.798;9.798;2022-08-25T11:35:09;3.63;;;3.33;;
7215;SDS011;3649;48.798;9.798;2022-08-25T11:48:51;4.57;;;3.33;;
7215;SDS011;3649;48.798;9.798;2022-08-25T11:51:47;4.33;;;3.43;;
7215;SDS011;3649;48.798;9.798;2022-08-25T11:54:17;5.37;;;3.43;;
7215;SDS011;3649;48.798;9.798;2022-08-25T12:10:56;4.83;;;4.40;;
7215;SDS011;3649;48.798;9.798;2022-08-25T12:35:56;3.90;;;3.50;;
7215;SDS011;3649;48.798;9.798;2022-08-25T12:41:06;5.90;;;3.20;;
7215;SDS011;3649;48.798;9.798;2022-08-25T12:43:37;4.50;;;3.87;;
7215;SDS011;3649;48.798;9.798;2022-08-25T12:46:55;3.50;;;3.20;;
7215;SDS011;3649;48.798;9.798;2022-08-25T12:49:03;3.50;;;3.30;;
7215;SDS011;3649;48.798;9.798;2022-08-25T12:54:18;3.57;;;3.27;;
7215;SDS011;3649;48.798;9.798;2022-08-25T12:56:55;4.23;;;3.27;;
7215;SDS011;3649;48.798;9.798;2022-08-25T12:59:39;3.93;;;3.60;;
7215;SDS011;3649;48.798;9.798;2022-08-25T13:16:40;3.30;;;3.10;;
7215;SDS011;3649;48.798;9.798;2022-08-25T13:19:21;5.87;;;3.57;;
7215;SDS011;3649;48.798;9.798;2022-08-25T13:21:49;3.23;;;3.00;;
7215;SDS011;3649;48.798;9.798;2022-08-25T13:24:21;5.80;;;3.33;;
7215;SDS011;3649;48.798;9.798;2022-08-25T13:27:07;3.17;;;2.87;;
7215;SDS011;3649;48.798;9.798;2022-08-25T13:29:52;3.47;;;3.20;;
7215;SDS011;3649;48.798;9.798;2022-08-25T13:32:29;4.87;;;3.17;;
7215;SDS011;3649;48.798;9.798;2022-08-25T13:35:34;3.33;;;3.13;;
7215;SDS011;3649;48.798;9.798;2022-08-25T13:38:14;4.97;;;3.30;;
7215;SDS011;3649;48.798;9.798;2022-08-25T13:40:42;3.80;;;3.37;;
7215;SDS011;3649;48.798;9.798;2022-08-25T13:43:11;3.77;;;3.47;;
7215;SDS011;3649;48.798;9.798;2022-08-25T13:45:44;3.70;;;3.30;;
7215;SDS011;3649;48.798;9.798;2022-08-25T13:48:30;3.60;;;3.30;;
7215;SDS011;3649;48.798;9.798;2022-08-25T13:51:24;3.60;;;3.30;;
7215;SDS011;3649;48.798;9.798;2022-08-25T13:54:01;3.50;;;3.30;;
7215;SDS011;3649;48.798;9.798;2022-08-25T13:56:36;3.27;;;2.90;;
7215;SDS011;3649;48.798;9.798;2022-08-25T13:59:25;3.33;;;3.13;;
7215;SDS011;3649;48.798;9.798;2022-08-25T14:01:58;3.53;;;3.23;;
7215;SDS011;3649;48.798;9.798;2022-08-25T14:04:45;3.60;;;3.30;;
7215;SDS011;3649;48.798;9.798;2022-08-25T14:09:58;3.43;;;3.13;;
7215;SDS011;3649;48.798;9.798;2022-08-25T14:12:41;3.10;;;2.90;;
7215;SDS011;3649;48.798;9.798;2022-08-25T14:17:45;3.60;;;3.30;;
7215;SDS011;3649;48.798;9.798;2022-08-25T14:20:35;3.00;;;2.77;;
7215;SDS011;3649;48.798;9.798;2022-08-25T14:23:07;3.20;;;3.00;;
7215;SDS011;3649;48.798;9.798;2022-08-25T14:25:44;4.07;;;3.07;;
7215;SDS011;3649;48.798;9.798;2022-08-25T14:28:14;4.20;;;3.70;;
7215;SDS011;3649;48.798;9.798;2022-08-25T14:33:54;4.90;;;3.90;;
7215;SDS011;3649;48.798;9.798;2022-08-25T14:36:28;3.90;;;3.60;;
7215;SDS011;3649;48.798;9.798;2022-08-25T14:38:56;4.13;;;3.40;;
7215;SDS011;3649;48.798;9.798;2022-08-25T14:41:23;4.27;;;3.50;;
7215;SDS011;3649;48.798;9.798;2022-08-25T14:43:51;3.40;;;3.10;;
7215;SDS011;3649;48.798;9.798;2022-08-25T14:46:20;4.10;;;3.80;;
7215;SDS011;3649;48.798;9.798;2022-08-25T14:48:49;4.83;;;3.53;;
7215;SDS011;3649;48.798;9.798;2022-08-25T14:51:20;4.20;;;3.90;;
7215;SDS011;3649;48.798;9.798;2022-08-25T14:53:50;4.43;;;4.13;;
7215;SDS011;3649;48.798;9.798;2022-08-25T14:56:19;3.93;;;3.53;;
7215;SDS011;3649;48.798;9.798;2022-08-25T14:58:46;3.70;;;3.40;;
7215;SDS011;3649;48.798;9.798;2022-08-25T15:01:19;3.00;;;2.70;;
7215;SDS011;3649;48.798;9.798;2022-08-25T15:04:09;3.20;;;2.90;;
7215;SDS011;3649;48.798;9.798;2022-08-25T15:06:42;5.13;;;2.87;;
7215;SDS011;3649;48.798;9.798;2022-08-25T15:09:11;3.50;;;3.17;;
7215;SDS011;3649;48.798;9.798;2022-08-25T15:11:43;3.60;;;3.30;;
7215;SDS011;3649;48.798;9.798;2022-08-25T15:14:16;4.00;;;3.63;;
7215;SDS011;3649;48.798;9.798;2022-08-25T15:16:58;3.70;;;3.40;;
7215;SDS011;3649;48.798;9.798;2022-08-25T15:19:27;3.90;;;3.60;;
7215;SDS011;3649;48.798;9.798;2022-08-25T15:21:54;5.00;;;4.10;;
7215;SDS011;3649;48.798;9.798;2022-08-25T15:24:24;4.67;;;4.17;;
7215;SDS011;3649;48.798;9.798;2022-08-25T15:26:55;4.13;;;3.80;;
7215;SDS011;3649;48.798;9.798;2022-08-25T15:29:26;6.07;;;3.77;;
7215;SDS011;3649;48.798;9.798;2022-08-25T15:31:56;3.77;;;3.50;;
7215;SDS011;3649;48.798;9.798;2022-08-25T15:34:25;5.43;;;4.23;;
7215;SDS011;3649;48.798;9.798;2022-08-25T15:36:53;4.47;;;4.17;;
7215;SDS011;3649;48.798;9.798;2022-08-25T15:39:20;4.10;;;3.80;;
7215;SDS011;3649;48.798;9.798;2022-08-25T15:41:47;4.40;;;4.00;;
7215;SDS011;3649;48.798;9.798;2022-08-25T15:44:17;7.30;;;4.10;;
7215;SDS011;3649;48.798;9.798;2022-08-25T15:46:45;5.07;;;3.23;;
7215;SDS011;3649;48.798;9.798;2022-08-25T15:49:15;9.57;;;4.53;;
7215;SDS011;3649;48.798;9.798;2022-08-25T15:51:49;4.27;;;3.83;;
7215;SDS011;3649;48.798;9.798;2022-08-25T15:54:20;5.27;;;3.87;;
7215;SDS011;3649;48.798;9.798;2022-08-25T15:56:48;5.40;;;4.00;;
7215;SDS011;3649;48.798;9.798;2022-08-25T15:59:17;4.13;;;3.73;;
7215;SDS011;3649;48.798;9.798;2022-08-25T16:01:46;5.20;;;3.87;;
7215;SDS011;3649;48.798;9.798;2022-08-25T16:04:14;6.40;;;4.20;;
7215;SDS011;3649;48.798;9.798;2022-08-25T16:06:43;4.40;;;4.00;;
7215;SDS011;3649;48.798;9.798;2022-08-25T16:09:10;7.73;;;3.80;;
7215;SDS011;3649;48.798;9.798;2022-08-25T16:11:37;3.90;;;3.60;;
7215;SDS011;3649;48.798;9.798;2022-08-25T16:14:04;4.33;;;3.87;;
7215;SDS011;3649;48.798;9.798;2022-08-25T16:16:31;4.73;;;4.17;;
7215;SDS011;3649;48.798;9.798;2022-08-25T16:18:59;5.20;;;4.50;;
7215;SDS011;3649;48.798;9.798;2022-08-25T16:21:28;4.87;;;4.27;;
7215;SDS011;3649;48.798;9.798;2022-08-25T16:24:01;6.10;;;4.20;;
7215;SDS011;3649;48.798;9.798;2022-08-25T16:26:33;6.70;;;4.20;;
7215;SDS011;3649;48.798;9.798;2022-08-25T16:29:04;4.47;;;4.07;;
7215;SDS011;3649;48.798;9.798;2022-08-25T16:31:32;4.33;;;4.03;;
7215;SDS011;3649;48.798;9.798;2022-08-25T16:33:59;4.07;;;3.70;;
7215;SDS011;3649;48.798;9.798;2022-08-25T16:36:27;4.77;;;4.37;;
7215;SDS011;3649;48.798;9.798;2022-08-25T16:38:55;5.00;;;4.57;;
7215;SDS011;3649;48.798;9.798;2022-08-25T16:41:24;5.00;;;4.33;;
7215;SDS011;3649;48.798;9.798;2022-08-25T16:43:59;4.90;;;4.40;;
7215;SDS011;3649;48.798;9.798;2022-08-25T16:46:28;4.40;;;4.00;;
7215;SDS011;3649;48.798;9.798;2022-08-25T16:48:58;4.50;;;4.00;;
7215;SDS011;3649;48.798;9.798;2022-08-25T16:51:27;4.57;;;4.17;;
7215;SDS011;3649;48.798;9.798;2022-08-25T16:53:57;6.13;;;4.27;;
7215;SDS011;3649;48.798;9.798;2022-08-25T16:56:48;4.33;;;3.93;;
7215;SDS011;3649;48.798;9.798;2022-08-25T16:59:20;10.43;;;4.07;;
7215;SDS011;3649;48.798;9.798;2022-08-25T17:01:49;6.20;;;4.20;;
7215;SDS011;3649;48.798;9.798;2022-08-25T17:04:17;7.33;;;4.93;;
7215;SDS011;3649;48.798;9.798;2022-08-25T17:06:45;4.70;;;3.73;;
7215;SDS011;3649;48.798;9.798;2022-08-25T17:09:17;3.90;;;3.60;;
7215;SDS011;3649;48.798;9.798;2022-08-25T17:11:49;8.53;;;4.33;;
7215;SDS011;3649;48.798;9.798;2022-08-25T17:14:19;5.20;;;4.03;;
7215;SDS011;3649;48.798;9.798;2022-08-25T17:16:47;4.93;;;3.83;;
7215;SDS011;3649;48.798;9.798;2022-08-25T17:19:16;4.07;;;3.67;;
7215;SDS011;3649;48.798;9.798;2022-08-25T17:21:45;5.87;;;3.93;;
7215;SDS011;3649;48.798;9.798;2022-08-25T17:24:13;7.57;;;3.87;;
7215;SDS011;3649;48.798;9.798;2022-08-25T17:26:42;4.13;;;3.80;;
7215;SDS011;3649;48.798;9.798;2022-08-25T17:29:11;4.43;;;4.03;;
7215;SDS011;3649;48.798;9.798;2022-08-25T17:31:38;4.57;;;3.63;;
7215;SDS011;3649;48.798;9.798;2022-08-25T17:34:07;3.67;;;3.33;;
7215;SDS011;3649;48.798;9.798;2022-08-25T17:36:35;5.43;;;3.60;;
7215;SDS011;3649;48.798;9.798;2022-08-25T17:39:05;4.23;;;3.83;;
7215;SDS011;3649;48.798;9.798;2022-08-25T17:41:34;6.50;;;4.13;;
7215;SDS011;3649;48.798;9.798;2022-08-25T17:44:03;4.20;;;3.80;;
7215;SDS011;3649;48.798;9.798;2022-08-25T17:46:30;5.90;;;3.80;;
7215;SDS011;3649;48.798;9.798;2022-08-25T17:48:58;4.93;;;4.03;;
7215;SDS011;3649;48.798;9.798;2022-08-25T17:51:25;8.07;;;4.33;;
7215;SDS011;3649;48.798;9.798;2022-08-25T17:53:54;7.37;;;4.20;;
7215;SDS011;3649;48.798;9.798;2022-08-25T17:56:22;5.13;;;4.27;;
7215;SDS011;3649;48.798;9.798;2022-08-25T17:58:53;5.10;;;4.30;;
7215;SDS011;3649;48.798;9.798;2022-08-25T18:01:22;4.27;;;3.90;;
7215;SDS011;3649;48.798;9.798;2022-08-25T18:03:51;5.00;;;4.13;;
7215;SDS011;3649;48.798;9.798;2022-08-25T18:06:19;9.00;;;4.53;;
7215;SDS011;3649;48.798;9.798;2022-08-25T18:08:46;8.57;;;4.50;;
7215;SDS011;3649;48.798;9.798;2022-08-25T18:11:19;6.70;;;4.43;;